Aérodrome :
LOGIN :

S'inscrire | Disclaimer

   EN    FR    IT 

 










Légende :    VFR   VFR Marginal   IFR   IFR Intensif   IFR Très Intensif
Visi : 
Plafond : 
>= 8 km
>= 3000ft
5 à 8 km
1000 à 3000 ft
1500m à 5 km
500 à 1000 ft
800 à 1500m
200 à 500 ft
< 800m
< 200 ft
Symboles :   Orages  Brouillard  Fortes neiges  Fortes précipitations  Vent > 20 kt
SIGMETs :   Divers  Orages  Givrage  Turbulence  Onde Orograph.  Cendres Volcan.






- Altitude de l'aérodrome : 370 ft


EBBE - Beauvechain AB

DERNIER METAR :
  • 242125Z AUTO 23019G30KT 9999 BKN011/// OVC015/// 10/08 Q1006 GRN

METARs EXPIRÉS :
  • 242055Z AUTO 23019KT 9999 BKN010/// BKN013/// 10/08 Q1006 GRN
  • 242025Z 23022KT 9999 FEW009 SCT011 BKN015 10/08 Q1006 GRN GRN
  • 241955Z 23020KT 9999 FEW009 SCT011 BKN015 10/09 Q1007 GRN GRN
  • 241925Z 23019KT 7000 -RADZ FEW009 SCT011 BKN017 10/09 Q1007 GRN GRN
  • 241855Z 23019KT 7000 FEW009 SCT011 BKN017 10/09 Q1007 GRN GRN

TAF TAF EBBE
Valide du 24 à 19h jusqu'au 25 à 07h UTC


241541Z 2419/2507 24018G28KT 9999 SCT020 SCT025
TEMPO 2419/2507 24022G32KT 4000 -RA -SHRA FEW008 SCT012 BKN020
BECMG 2504/2506 26015KT



MET'MAP, la Météo Aéronautique d'un coup d'oeil ! - Copyright ORBIFLY Décembre 2007 - Disclaimer

ORBIFLY MET'MAP TEAM :

Programmation & Développement : Alexandra Zaïnal
Sur une idée originale de : Baudouin d'Aumeries
Assistance à la programmation : Marc-Olivier Méhu
Soutien technique & logistique : Manuel Goepfert

Contact : metmap@orbifly.com




SOURCES & CREDITS :

   NOAA